Aeroporto :
LOGIN :

Iscrizione | Disclaimer

   EN    FR    IT 

 










Sommario :    VFR   VFR Marginale   IFR   IFR Intensivo   IFR Molto Intensivo
Visibilità : 
Base nubi : 
>= 8 km
>= 3000ft
5 / 8 km
1000 / 3000 ft
1500m / 5 km
500 / 1000 ft
800 / 1500m
200 / 500 ft
< 800m
< 200 ft
Simboli :   Temporali  Nebbia  Neve Forte  Precipitazioni Forti  Vento > 20 kt
SIGMETs :   Varie  Temporali  Ghiacco  Turbolenza  Onda orograficha  Ceneri Vulcaniche







- Altitudine del aeroporto : 19 ft
- Codice IATA : BEB
- Carte del aeroporto


EGPL - Benbecula

ULTIMO METAR :
  • 190650Z 21014KT 9999 VCSH FEW008 SCT010 BKN014 12/10 Q1003

METARs OBSOLETI :
  • 190620Z 21014KT 9999 SCT014 BKN020 11/10 Q1003
  • 190550Z AUTO 21014KT 9999 BKN010/// 11/10 Q1003
  • 190520Z AUTO 21013KT 9999 BKN011/// 11/10 Q1003
  • 190450Z AUTO 20013KT 9999 BKN011/// 11/09 Q1003
  • 190420Z AUTO 20011KT 9999 FEW011/// BKN024/// 11/09 Q1004

TAF TAF EGPL
Valido dal 19 a 06 ore il 19 a 15 ore UTC


190501Z 1906/1915 21015KT 9999 FEW012 SCT025
PROB40
TEMPO 1906/1912 6000 SHRA BKN010
PROB30
TEMPO 1913/1915 6000 SHRA
ATIS : +44 1870 604 818
Nessun NOTAM noto per questo aeroporto.



MetMap, La meteo Aeronautica in un colpo d'occhio ! - Copyright ORBIFLY Dicembre 2007 - Disclaimer

ORBIFLY MET'MAP TEAM :

Programmazione e sviluppo : Alexandra Zaïnal
Concezione e sviluppo : Baudouin d'Aumeries
Co-Programmazione e sviluppo : Marc-Olivier Méhu
Supporto tecnico e logistico : Manuel Goepfert
Aiuto per la traduzione : Arnaldo La Scala

Contatto : metmap@orbifly.com




FONTI E CREDITI :

   NOAA